Time;durP1;ratioP1;P1;durP2;ratioP2;P2;SDS_P1;SDS_P2;PMS_P1;PMS_P2;Temp;Humidity;BMP_temperature;BMP_pressure;BME280_temperature;BME280_humidity;BME280_pressure;Samples;Min_cycle;Max_cycle;Signal;HPM_P1;HPM_P2
2023/01/20 00:02:15;;;;;;;44.08;23.95;;;1.90;99.90;;;;;;5047461;28;20442;-77
2023/01/20 00:04:41;;;;;;;49.00;25.27;;;1.80;99.90;;;;;;5050213;28;20024;-77
2023/01/20 00:07:07;;;;;;;48.20;25.50;;;1.80;99.90;;;;;;5049576;28;20479;-77
2023/01/20 00:09:32;;;;;;;53.13;25.35;;;1.80;99.90;;;;;;5049602;28;20104;-77
2023/01/20 00:11:58;;;;;;;56.92;27.45;;;1.80;99.90;;;;;;5049403;28;20025;-75
2023/01/20 00:14:24;;;;;;;55.28;26.95;;;1.80;99.90;;;;;;5046586;28;20033;-75
2023/01/20 00:16:50;;;;;;;56.35;27.35;;;1.80;99.90;;;;;;5038484;28;20491;-75
2023/01/20 00:19:16;;;;;;;55.10;27.42;;;1.80;99.90;;;;;;5045621;28;20032;-75
2023/01/20 00:21:41;;;;;;;56.00;28.58;;;1.80;99.90;;;;;;5055938;28;20407;-75
2023/01/20 00:24:07;;;;;;;59.78;28.45;;;1.80;99.90;;;;;;5054963;28;20140;-75
2023/01/20 00:26:33;;;;;;;58.50;27.63;;;1.70;99.90;;;;;;5051179;28;20415;-77
2023/01/20 00:28:59;;;;;;;57.60;27.58;;;1.80;99.90;;;;;;5039019;28;20026;-77
2023/01/20 00:31:29;;;;;;;59.97;28.75;;;1.70;99.90;;;;;;5052984;28;20454;-77
2023/01/20 00:33:58;;;;;;;54.67;28.00;;;1.80;99.90;;;;;;5043599;28;20029;-77
2023/01/20 00:36:25;;;;;;;62.38;27.80;;;1.80;99.90;;;;;;5051234;28;20127;-77
2023/01/20 00:38:51;;;;;;;58.88;27.15;;;1.70;99.90;;;;;;5048248;28;20426;-77
2023/01/20 00:41:17;;;;;;;56.05;27.55;;;1.70;99.90;;;;;;5054921;28;20070;-77
2023/01/20 00:43:43;;;;;;;65.78;28.42;;;1.70;99.90;;;;;;5054076;28;20028;-77
2023/01/20 00:46:09;;;;;;;59.45;27.50;;;1.70;99.90;;;;;;5055645;28;20036;-77
2023/01/20 00:48:35;;;;;;;55.33;26.60;;;1.70;99.90;;;;;;5053870;28;20041;-77
2023/01/20 00:51:01;;;;;;;59.83;26.45;;;1.70;99.90;;;;;;5054214;28;20071;-77
2023/01/20 00:53:28;;;;;;;64.13;27.90;;;1.70;99.90;;;;;;5053985;28;20045;-77
2023/01/20 00:55:53;;;;;;;62.88;28.10;;;1.60;99.90;;;;;;5056606;28;20036;-75
2023/01/20 00:58:19;;;;;;;63.55;27.83;;;1.70;99.90;;;;;;5054682;28;20025;-75
2023/01/20 01:00:52;;;;;;;58.92;27.35;;;1.70;99.90;;;;;;5054320;28;20466;-75
2023/01/20 01:03:18;;;;;;;63.53;27.40;;;1.70;99.90;;;;;;5053224;28;20037;-75
2023/01/20 01:05:44;;;;;;;62.38;27.13;;;1.70;99.90;;;;;;5055883;28;20047;-75
2023/01/20 01:08:10;;;;;;;62.45;26.55;;;1.70;99.90;;;;;;5053736;28;20514;-75
2023/01/20 01:10:36;;;;;;;59.22;26.50;;;1.70;99.90;;;;;;5045994;28;20017;-75
2023/01/20 01:13:03;;;;;;;63.83;27.65;;;1.60;99.90;;;;;;5054744;28;20020;-76
2023/01/20 01:15:29;;;;;;;59.38;27.13;;;1.70;99.90;;;;;;5056766;28;20044;-76
2023/01/20 01:17:56;;;;;;;68.30;27.58;;;1.60;99.90;;;;;;5036140;28;20017;-77
2023/01/20 01:20:22;;;;;;;63.15;27.70;;;1.70;99.90;;;;;;5052312;28;20113;-76
2023/01/20 01:22:48;;;;;;;66.45;27.23;;;1.70;99.90;;;;;;5050110;28;20037;-76
2023/01/20 01:25:14;;;;;;;59.97;26.83;;;1.60;99.90;;;;;;5053670;28;20082;-76
2023/01/20 01:27:39;;;;;;;61.13;25.80;;;1.70;99.90;;;;;;5055092;28;20044;-76
2023/01/20 01:30:06;;;;;;;61.42;27.15;;;1.70;99.90;;;;;;5042018;28;20060;-76
2023/01/20 01:32:31;;;;;;;63.30;26.42;;;1.60;99.90;;;;;;5048904;28;20055;-76
2023/01/20 01:34:57;;;;;;;59.97;26.50;;;1.60;99.90;;;;;;5049186;28;20482;-76
2023/01/20 01:37:22;;;;;;;65.28;27.13;;;1.60;99.90;;;;;;5051177;28;20398;-76
2023/01/20 01:39:48;;;;;;;60.10;26.48;;;1.60;99.90;;;;;;5050791;28;20029;-76
2023/01/20 01:42:17;;;;;;;58.83;26.58;;;1.60;99.90;;;;;;5045867;28;20033;-76
2023/01/20 01:45:07;;;;;;;58.47;25.55;;;1.60;99.90;;;;;;5033051;28;20033;-77
2023/01/20 01:47:33;;;;;;;59.88;25.23;;;1.60;99.90;;;;;;5052473;28;20025;-76
2023/01/20 01:49:59;;;;;;;62.25;26.48;;;1.60;99.90;;;;;;5050404;28;20507;-76
2023/01/20 01:52:25;;;;;;;64.25;26.00;;;1.70;99.90;;;;;;5052300;28;20025;-77
2023/01/20 01:54:51;;;;;;;58.55;25.90;;;1.60;99.90;;;;;;5033809;28;20520;-76
2023/01/20 01:57:18;;;;;;;58.85;24.48;;;1.70;99.90;;;;;;5040504;28;20051;-76
2023/01/20 01:59:43;;;;;;;57.85;24.27;;;1.70;99.90;;;;;;5046134;28;20073;-77
2023/01/20 02:02:09;;;;;;;60.20;25.58;;;1.70;99.90;;;;;;5051988;28;20103;-76
2023/01/20 02:04:37;;;;;;;53.60;23.15;;;1.70;99.90;;;;;;5052437;28;20033;-76
2023/01/20 02:07:09;;;;;;;53.28;23.55;;;1.70;99.90;;;;;;5049264;28;20022;-77
2023/01/20 02:09:34;;;;;;;51.47;22.60;;;1.70;99.90;;;;;;5039558;28;20021;-77
2023/01/20 02:12:05;;;;;;;51.20;22.17;;;1.70;99.90;;;;;;5051205;28;20425;-76
2023/01/20 02:14:35;;;;;;;51.38;22.33;;;1.80;99.90;;;;;;5033256;28;20548;-77
2023/01/20 02:17:12;;;;;;;47.45;21.55;;;1.80;99.90;;;;;;5052310;28;20143;-77
2023/01/20 02:19:55;;;;;;;48.70;21.77;;;1.70;99.90;;;;;;5050126;28;20025;-76
2023/01/20 02:22:58;;;;;;;49.28;22.02;;;1.70;99.90;;;;;;5032700;28;20043;-77
2023/01/20 02:26:00;;;;;;;51.67;22.48;;;1.70;99.90;;;;;;5037017;28;20051;-77
2023/01/20 02:28:47;;;;;;;49.22;19.85;;;1.80;99.90;;;;;;5037210;28;20036;-77
2023/01/20 02:31:21;;;;;;;45.28;20.98;;;1.80;99.90;;;;;;5051472;28;20076;-76
2023/01/20 02:33:56;;;;;;;40.92;19.63;;;1.80;99.90;;;;;;5034765;28;20057;-77
2023/01/20 02:36:32;;;;;;;48.53;20.20;;;1.70;99.90;;;;;;5042838;28;20032;-76
2023/01/20 02:39:10;;;;;;;44.78;19.67;;;1.70;99.90;;;;;;5050444;28;20053;-76
2023/01/20 02:42:09;;;;;;;39.38;19.90;;;1.70;99.90;;;;;;5050923;28;20024;-76
2023/01/20 02:44:39;;;;;;;47.35;21.52;;;1.70;99.90;;;;;;5041686;28;20112;-77
2023/01/20 02:47:17;;;;;;;51.28;22.23;;;1.70;99.90;;;;;;5050705;28;20021;-77
2023/01/20 02:49:49;;;;;;;49.10;23.45;;;1.80;99.90;;;;;;5040048;28;20390;-77
2023/01/20 02:52:19;;;;;;;45.28;22.70;;;1.80;99.90;;;;;;5050564;28;20029;-76
2023/01/20 02:54:49;;;;;;;53.13;23.90;;;1.80;99.90;;;;;;5048318;28;20029;-76
2023/01/20 02:57:21;;;;;;;48.95;24.10;;;1.80;99.90;;;;;;5026319;28;20480;-77
2023/01/20 02:59:52;;;;;;;45.53;23.08;;;1.80;99.90;;;;;;5042664;28;20048;-76
2023/01/20 03:02:24;;;;;;;49.60;23.60;;;1.80;99.90;;;;;;5050802;28;20056;-76
2023/01/20 03:05:07;;;;;;;51.95;23.05;;;1.90;99.90;;;;;;5050840;28;20033;-76
2023/01/20 03:07:36;;;;;;;46.95;22.35;;;1.90;99.90;;;;;;5050430;28;20025;-77
2023/01/20 03:10:07;;;;;;;50.10;22.00;;;1.90;99.90;;;;;;5050256;28;20025;-76
2023/01/20 03:12:39;;;;;;;49.30;21.98;;;1.90;99.90;;;;;;5029937;28;20036;-77
2023/01/20 03:15:06;;;;;;;43.22;20.50;;;1.90;99.90;;;;;;5030993;28;20033;-76
2023/01/20 03:17:32;;;;;;;41.88;20.70;;;2.00;99.90;;;;;;5031937;28;20025;-76
2023/01/20 03:19:59;;;;;;;43.40;20.50;;;1.90;99.90;;;;;;5038024;28;20363;-77
2023/01/20 03:22:25;;;;;;;45.17;20.52;;;1.90;99.90;;;;;;5049736;28;20025;-76
2023/01/20 03:24:51;;;;;;;43.35;20.50;;;2.00;99.90;;;;;;5048250;28;20059;-77
2023/01/20 03:27:17;;;;;;;40.75;19.80;;;2.00;99.90;;;;;;5045103;28;20486;-76
2023/01/20 03:29:42;;;;;;;39.97;19.58;;;2.00;99.90;;;;;;5044329;28;20104;-77
2023/01/20 03:32:10;;;;;;;43.85;20.40;;;2.00;99.90;;;;;;5049935;28;20144;-77
2023/01/20 03:34:39;;;;;;;41.33;18.85;;;2.00;99.90;;;;;;5045069;28;20037;-76
2023/01/20 03:37:06;;;;;;;48.65;20.25;;;2.00;99.90;;;;;;5041242;28;20032;-77
2023/01/20 03:39:32;;;;;;;41.28;19.98;;;2.00;99.90;;;;;;5046448;28;20021;-77
2023/01/20 03:42:07;;;;;;;43.03;19.98;;;2.00;99.90;;;;;;5044485;28;20025;-76
2023/01/20 03:44:49;;;;;;;41.92;20.13;;;2.00;99.90;;;;;;5050358;28;20383;-77
2023/01/20 03:47:50;;;;;;;43.42;20.23;;;2.00;99.90;;;;;;5047825;28;20056;-77
2023/01/20 03:50:43;;;;;;;40.08;19.85;;;2.00;99.90;;;;;;4968110;28;20402;-76
2023/01/20 03:53:32;;;;;;;47.33;21.67;;;2.00;99.90;;;;;;4966009;28;20053;-76
2023/01/20 03:56:21;;;;;;;48.58;21.88;;;2.00;99.90;;;;;;4968791;28;20564;-76
2023/01/20 03:58:50;;;;;;;46.90;22.38;;;2.10;99.90;;;;;;4962371;28;20511;-77
2023/01/20 04:01:20;;;;;;;48.10;22.83;;;2.00;99.90;;;;;;4962063;28;20030;-76
2023/01/20 04:03:50;;;;;;;53.58;22.90;;;2.00;99.90;;;;;;4969053;28;20026;-77
2023/01/20 04:06:18;;;;;;;53.45;23.50;;;2.00;99.90;;;;;;4968774;28;20038;-76
2023/01/20 04:08:50;;;;;;;59.75;25.10;;;2.10;99.90;;;;;;4968905;28;20448;-76
2023/01/20 04:11:16;;;;;;;56.97;25.02;;;2.10;99.90;;;;;;4968375;28;20030;-77
2023/01/20 04:13:42;;;;;;;67.45;26.95;;;2.10;99.90;;;;;;4969159;28;20481;-76
2023/01/20 04:16:14;;;;;;;68.20;27.33;;;2.10;99.90;;;;;;4966873;28;20023;-76
2023/01/20 04:18:42;;;;;;;69.97;29.10;;;2.10;99.90;;;;;;4968542;28;20380;-76
2023/01/20 04:21:14;;;;;;;71.13;29.83;;;2.10;99.90;;;;;;4968766;28;20031;-76
2023/01/20 04:24:02;;;;;;;74.05;29.98;;;2.10;99.90;;;;;;4968879;28;20386;-76
2023/01/20 04:26:28;;;;;;;71.57;29.48;;;2.10;99.90;;;;;;5013530;28;20136;-76
2023/01/20 04:28:54;;;;;;;72.47;29.48;;;2.10;99.90;;;;;;5046176;28;20104;-76
2023/01/20 04:31:19;;;;;;;76.97;30.85;;;2.10;99.90;;;;;;5039743;28;20104;-76
2023/01/20 04:33:45;;;;;;;70.70;29.52;;;2.10;99.90;;;;;;5050223;28;20033;-76
2023/01/20 04:36:10;;;;;;;71.93;30.65;;;2.10;99.90;;;;;;5049650;28;20107;-77
2023/01/20 04:38:36;;;;;;;75.95;30.52;;;2.10;99.90;;;;;;5046792;28;20021;-77
2023/01/20 04:41:01;;;;;;;79.90;31.17;;;2.10;99.90;;;;;;5048210;28;20596;-77
2023/01/20 04:43:27;;;;;;;76.47;30.55;;;2.10;99.90;;;;;;5041836;28;20029;-77
2023/01/20 04:45:53;;;;;;;75.07;30.63;;;2.20;99.90;;;;;;5039355;28;20399;-77
2023/01/20 04:48:18;;;;;;;83.65;32.17;;;2.10;99.90;;;;;;5040426;28;20385;-77
2023/01/20 04:51:03;;;;;;;80.43;29.85;;;2.20;99.90;;;;;;5008610;28;20076;-77
2023/01/20 04:53:29;;;;;;;75.80;29.17;;;2.20;99.90;;;;;;5048388;28;20025;-77
2023/01/20 04:55:54;;;;;;;76.38;30.08;;;2.20;99.90;;;;;;5049173;28;20108;-77
2023/01/20 04:58:20;;;;;;;75.72;29.80;;;2.20;99.90;;;;;;5047245;28;20029;-77
2023/01/20 05:00:45;;;;;;;74.22;29.80;;;2.20;99.90;;;;;;5016254;28;20439;-77
2023/01/20 05:03:11;;;;;;;70.20;28.17;;;2.20;99.90;;;;;;5041956;28;20488;-77
2023/01/20 05:05:37;;;;;;;76.13;30.02;;;2.20;99.90;;;;;;5052052;28;20017;-77
2023/01/20 05:08:03;;;;;;;74.25;29.00;;;2.20;99.90;;;;;;5050838;28;20316;-76
2023/01/20 05:10:31;;;;;;;67.97;27.50;;;2.20;99.90;;;;;;5047764;28;20025;-77
2023/01/20 05:12:57;;;;;;;65.30;26.38;;;2.20;99.90;;;;;;5044568;28;20056;-76
2023/01/20 05:15:22;;;;;;;68.22;27.00;;;2.20;99.90;;;;;;5041421;28;20033;-76
2023/01/20 05:17:48;;;;;;;72.72;27.50;;;2.20;99.90;;;;;;5052141;28;20068;-75
2023/01/20 05:20:14;;;;;;;66.32;26.30;;;2.20;99.90;;;;;;5054094;28;20379;-76
2023/01/20 05:22:40;;;;;;;65.15;27.08;;;2.20;99.90;;;;;;5054302;28;20028;-76
2023/01/20 05:25:06;;;;;;;68.40;27.33;;;2.20;99.90;;;;;;5053528;28;20356;-76
2023/01/20 05:27:35;;;;;;;69.82;27.75;;;2.20;99.90;;;;;;5053875;28;20379;-76
2023/01/20 05:30:02;;;;;;;64.55;25.23;;;2.20;99.90;;;;;;5051714;28;20515;-76
2023/01/20 05:32:28;;;;;;;58.53;23.90;;;2.20;99.90;;;;;;5034437;28;20021;-76
2023/01/20 05:34:53;;;;;;;49.65;21.50;;;2.10;99.90;;;;;;5049755;28;20039;-76
2023/01/20 05:37:19;;;;;;;51.20;21.23;;;2.10;99.90;;;;;;5051180;28;20025;-76
2023/01/20 05:39:45;;;;;;;45.85;20.10;;;2.20;99.90;;;;;;5037347;28;20450;-76
2023/01/20 05:42:10;;;;;;;42.25;18.20;;;2.20;99.90;;;;;;5040604;28;20024;-76
2023/01/20 05:44:36;;;;;;;47.13;19.92;;;2.20;99.90;;;;;;5039698;28;20021;-76
2023/01/20 05:47:01;;;;;;;49.17;20.15;;;2.20;99.90;;;;;;5038406;28;20013;-76
2023/01/20 05:49:27;;;;;;;44.75;18.88;;;2.20;99.90;;;;;;5035697;28;20073;-76
2023/01/20 05:51:53;;;;;;;45.88;18.70;;;2.20;99.90;;;;;;5048162;28;20028;-76
2023/01/20 05:54:18;;;;;;;42.65;18.20;;;2.20;99.90;;;;;;5035379;28;20097;-76
2023/01/20 05:56:48;;;;;;;39.05;17.63;;;2.20;99.90;;;;;;5035517;28;20350;-75
2023/01/20 05:59:13;;;;;;;42.28;16.30;;;2.20;99.90;;;;;;5033492;28;20354;-76
2023/01/20 06:01:39;;;;;;;37.75;16.42;;;2.20;99.90;;;;;;5045079;28;20032;-76
2023/01/20 06:04:05;;;;;;;38.20;16.15;;;2.20;99.90;;;;;;5051450;28;20098;-76
2023/01/20 06:06:31;;;;;;;38.13;15.80;;;2.20;99.90;;;;;;5036650;28;20061;-76
2023/01/20 06:08:56;;;;;;;41.25;15.90;;;2.20;99.90;;;;;;5037300;28;20056;-76
2023/01/20 06:11:23;;;;;;;44.58;18.50;;;2.20;99.90;;;;;;5034695;28;20052;-76
2023/01/20 06:13:48;;;;;;;45.97;18.35;;;2.30;99.90;;;;;;5032276;28;20033;-76
2023/01/20 06:16:16;;;;;;;43.78;18.15;;;2.20;99.90;;;;;;5035863;28;20025;-76
2023/01/20 06:18:42;;;;;;;44.92;18.65;;;2.20;99.90;;;;;;5033412;28;20043;-75
2023/01/20 06:21:07;;;;;;;47.58;19.40;;;2.20;99.90;;;;;;5036189;28;20039;-75
2023/01/20 06:23:33;;;;;;;43.15;18.60;;;2.10;99.90;;;;;;5037654;28;20056;-75
2023/01/20 06:26:04;;;;;;;50.03;19.45;;;2.10;99.90;;;;;;5036415;28;20021;-75
2023/01/20 06:28:31;;;;;;;47.75;18.98;;;2.10;99.90;;;;;;5034967;28;20025;-76
2023/01/20 06:31:06;;;;;;;45.20;20.33;;;2.10;99.90;;;;;;5035766;28;20096;-76
2023/01/20 06:33:33;;;;;;;49.78;21.17;;;2.00;99.90;;;;;;5049619;28;20024;-76
2023/01/20 06:35:58;;;;;;;49.40;21.17;;;2.00;99.90;;;;;;5033413;28;20472;-75
2023/01/20 06:38:25;;;;;;;42.10;20.27;;;2.00;99.90;;;;;;5020179;28;20076;-75
2023/01/20 06:40:57;;;;;;;50.08;20.15;;;2.00;99.90;;;;;;5033962;28;20478;-75
2023/01/20 06:43:23;;;;;;;43.15;19.73;;;2.00;99.90;;;;;;5041921;28;20032;-75
2023/01/20 06:45:48;;;;;;;44.60;19.88;;;2.00;99.90;;;;;;5022222;28;20037;-75
2023/01/20 06:48:14;;;;;;;43.88;20.75;;;2.00;99.90;;;;;;5046897;28;20250;-75
2023/01/20 06:50:39;;;;;;;45.22;21.40;;;2.00;99.90;;;;;;5035860;28;20593;-75
2023/01/20 06:53:05;;;;;;;48.47;21.17;;;2.00;99.90;;;;;;5038233;28;20072;-75
2023/01/20 06:55:31;;;;;;;45.75;21.70;;;2.00;99.90;;;;;;5037300;28;20029;-75
2023/01/20 06:57:56;;;;;;;43.80;20.02;;;2.00;99.90;;;;;;5031560;28;20074;-75
2023/01/20 07:00:22;;;;;;;47.67;21.65;;;2.00;99.90;;;;;;5040190;28;20036;-75
2023/01/20 07:02:48;;;;;;;43.65;21.17;;;2.00;99.90;;;;;;5051490;28;20013;-75
2023/01/20 07:05:14;;;;;;;51.53;22.15;;;2.00;99.90;;;;;;5051330;28;20040;-75
2023/01/20 07:07:43;;;;;;;47.28;22.10;;;2.00;99.90;;;;;;5050559;28;20021;-75
2023/01/20 07:10:09;;;;;;;47.42;22.50;;;2.00;99.90;;;;;;5046240;28;20167;-75
2023/01/20 07:12:35;;;;;;;43.92;22.17;;;2.00;99.90;;;;;;5048514;28;20024;-75
2023/01/20 07:15:01;;;;;;;45.80;22.17;;;2.00;99.90;;;;;;5037064;28;20132;-75
2023/01/20 07:17:26;;;;;;;46.25;23.75;;;2.00;99.90;;;;;;5050250;28;20024;-75
2023/01/20 07:19:52;;;;;;;47.72;23.08;;;2.00;99.90;;;;;;5044343;28;20539;-76
2023/01/20 07:22:17;;;;;;;46.58;23.23;;;2.00;99.90;;;;;;5043472;28;20029;-76
2023/01/20 07:24:43;;;;;;;47.17;22.50;;;2.00;99.90;;;;;;5043415;28;20317;-76
2023/01/20 07:27:08;;;;;;;44.92;22.40;;;2.10;99.90;;;;;;5046540;28;20087;-77
2023/01/20 07:29:34;;;;;;;46.03;23.17;;;2.10;99.90;;;;;;5040095;28;20084;-76
2023/01/20 07:32:00;;;;;;;49.78;23.63;;;2.10;99.90;;;;;;5049239;28;20436;-76
2023/01/20 07:34:25;;;;;;;45.13;22.80;;;2.10;99.90;;;;;;5030050;28;20029;-76
2023/01/20 07:36:52;;;;;;;46.00;23.67;;;2.10;99.90;;;;;;5032654;28;20044;-76
2023/01/20 07:39:18;;;;;;;47.88;23.77;;;2.10;99.90;;;;;;5032246;28;20021;-76
2023/01/20 07:41:47;;;;;;;46.15;24.63;;;2.10;99.90;;;;;;5033671;28;20524;-76
2023/01/20 07:44:13;;;;;;;51.78;25.50;;;2.10;99.90;;;;;;5031550;28;20060;-76
2023/01/20 07:46:39;;;;;;;52.63;25.20;;;2.20;99.90;;;;;;5029325;28;20367;-76
2023/01/20 07:49:05;;;;;;;50.78;26.27;;;2.20;99.90;;;;;;5044357;28;20056;-76
2023/01/20 07:51:30;;;;;;;53.10;26.00;;;2.20;99.90;;;;;;5045072;28;20028;-76
2023/01/20 07:53:56;;;;;;;46.80;25.38;;;2.20;99.90;;;;;;5045029;28;20032;-76
2023/01/20 07:56:26;;;;;;;48.97;25.35;;;2.20;99.90;;;;;;5044410;28;20021;-76
2023/01/20 07:58:53;;;;;;;51.78;26.60;;;2.20;99.90;;;;;;5050274;28;20021;-76
2023/01/20 08:01:24;;;;;;;51.35;26.33;;;2.20;99.90;;;;;;5049501;28;20048;-77
2023/01/20 08:03:51;;;;;;;48.90;24.38;;;2.20;99.90;;;;;;5043036;28;20083;-77
2023/01/20 08:06:19;;;;;;;51.40;25.00;;;2.20;99.90;;;;;;5031624;28;20379;-76
2023/01/20 08:08:45;;;;;;;50.08;25.55;;;2.20;99.90;;;;;;5039550;28;20029;-76
2023/01/20 08:11:13;;;;;;;51.55;26.40;;;2.30;99.90;;;;;;5048826;28;20029;-76
2023/01/20 08:13:39;;;;;;;48.15;25.02;;;2.30;99.90;;;;;;5049730;28;20120;-77
2023/01/20 08:16:07;;;;;;;48.72;25.20;;;2.30;99.90;;;;;;5049694;28;20099;-77
2023/01/20 08:18:34;;;;;;;47.60;25.38;;;2.30;99.90;;;;;;5048770;28;20289;-77
2023/01/20 08:21:00;;;;;;;50.67;25.60;;;2.30;99.90;;;;;;5039081;28;20032;-75
2023/01/20 08:23:26;;;;;;;48.78;24.75;;;2.30;99.90;;;;;;5040991;28;20017;-75
2023/01/20 08:26:01;;;;;;;47.60;26.00;;;2.30;99.90;;;;;;5044426;28;20060;-75
2023/01/20 08:28:27;;;;;;;49.53;26.52;;;2.30;99.90;;;;;;5042428;28;20028;-75
2023/01/20 08:30:53;;;;;;;47.22;25.13;;;2.20;99.90;;;;;;5036937;28;20025;-75
2023/01/20 08:33:19;;;;;;;48.08;24.98;;;2.20;99.90;;;;;;5041883;28;20562;-76
2023/01/20 08:35:45;;;;;;;46.60;24.33;;;2.20;99.90;;;;;;5042428;28;20379;-75
2023/01/20 08:38:11;;;;;;;46.28;25.42;;;2.20;99.90;;;;;;5050406;28;20234;-75
2023/01/20 08:40:40;;;;;;;47.20;25.05;;;2.20;99.90;;;;;;5054132;28;20153;-75
2023/01/20 08:43:06;;;;;;;50.10;25.52;;;2.20;99.90;;;;;;5053178;28;20036;-75
2023/01/20 08:45:31;;;;;;;48.53;25.77;;;2.20;99.90;;;;;;5053786;28;20033;-75
2023/01/20 08:47:57;;;;;;;49.05;25.70;;;2.20;99.90;;;;;;5035931;28;20021;-75
2023/01/20 08:50:23;;;;;;;50.17;25.90;;;2.20;99.90;;;;;;5046611;28;20060;-75
2023/01/20 08:52:49;;;;;;;42.10;23.88;;;2.20;99.90;;;;;;5028145;28;20028;-75
2023/01/20 08:55:15;;;;;;;46.03;26.10;;;2.20;99.90;;;;;;5053464;28;20021;-75
2023/01/20 08:57:40;;;;;;;48.05;25.13;;;2.20;99.90;;;;;;5036098;28;20106;-75
2023/01/20 09:00:09;;;;;;;42.17;23.75;;;2.20;99.90;;;;;;5051655;28;20167;-75
2023/01/20 09:02:36;;;;;;;47.50;25.38;;;2.20;99.90;;;;;;5053192;28;20009;-75
2023/01/20 09:05:03;;;;;;;44.33;24.90;;;2.20;99.90;;;;;;5047965;28;20033;-75
2023/01/20 09:07:29;;;;;;;46.03;25.73;;;2.20;99.90;;;;;;5052644;28;20051;-75
2023/01/20 09:09:55;;;;;;;43.40;24.35;;;2.20;99.90;;;;;;5052987;28;20469;-75
2023/01/20 09:12:20;;;;;;;46.45;25.77;;;2.20;99.90;;;;;;5052583;28;20025;-75
2023/01/20 09:14:46;;;;;;;48.90;25.73;;;2.20;99.90;;;;;;5048070;28;20029;-75
2023/01/20 09:17:13;;;;;;;47.60;25.70;;;2.20;99.90;;;;;;5046029;28;20104;-75
2023/01/20 09:19:39;;;;;;;46.15;25.08;;;2.20;99.90;;;;;;5029215;28;20017;-74
2023/01/20 09:22:04;;;;;;;45.40;25.52;;;2.20;99.90;;;;;;5049938;28;20021;-75
2023/01/20 09:24:30;;;;;;;48.08;25.10;;;2.30;99.90;;;;;;5051198;28;20472;-75
2023/01/20 09:26:57;;;;;;;45.97;24.95;;;2.30;99.90;;;;;;5051867;28;20028;-75
2023/01/20 09:29:23;;;;;;;43.67;24.42;;;2.30;99.90;;;;;;5046616;28;21086;-75
2023/01/20 09:31:51;;;;;;;51.38;26.58;;;2.30;99.90;;;;;;5034209;28;20167;-74
2023/01/20 09:34:22;;;;;;;47.33;24.58;;;2.30;99.90;;;;;;5052547;28;20123;-74
2023/01/20 09:36:56;;;;;;;46.42;25.13;;;2.30;99.90;;;;;;5053161;28;20455;-75
2023/01/20 09:45:33;;;;;;;42.75;23.02;;;2.40;99.90;;;;;;5031574;28;20075;-75
2023/01/20 09:48:14;;;;;;;40.65;21.95;;;2.40;99.90;;;;;;5031425;28;20667;-75
2023/01/20 09:54:06;;;;;;;45.58;23.80;;;2.40;99.90;;;;;;5033087;28;20432;-74
2023/01/20 09:56:38;;;;;;;45.75;22.63;;;2.40;99.90;;;;;;5034924;28;20040;-74
2023/01/20 09:59:17;;;;;;;33.15;19.30;;;2.40;99.90;;;;;;5033564;28;20495;-74
2023/01/20 10:01:53;;;;;;;35.38;19.80;;;2.40;99.90;;;;;;5045536;28;20087;-74
2023/01/20 10:04:40;;;;;;;36.42;20.75;;;2.50;99.90;;;;;;5048363;28;20103;-74
2023/01/20 10:07:23;;;;;;;37.08;20.15;;;2.50;99.90;;;;;;5050835;28;20043;-74
2023/01/20 10:10:08;;;;;;;37.13;20.33;;;2.50;99.90;;;;;;5043738;28;20535;-74
2023/01/20 10:12:46;;;;;;;37.80;20.73;;;2.60;99.90;;;;;;5048704;28;20028;-74
2023/01/20 10:15:26;;;;;;;37.30;20.08;;;2.50;99.90;;;;;;5052072;28;20068;-74
2023/01/20 10:18:19;;;;;;;37.65;20.20;;;2.60;99.90;;;;;;5051465;28;20407;-74
2023/01/20 10:20:55;;;;;;;36.55;20.85;;;2.60;99.90;;;;;;5051133;28;20055;-74
2023/01/20 10:23:36;;;;;;;37.00;20.63;;;2.60;99.90;;;;;;5039209;28;20105;-74
2023/01/20 10:26:15;;;;;;;41.88;22.55;;;2.60;99.90;;;;;;5046881;28;20029;-74
2023/01/20 10:28:45;;;;;;;40.88;22.30;;;2.70;99.90;;;;;;5043749;28;20018;-74
2023/01/20 10:31:14;;;;;;;42.20;21.77;;;2.70;99.90;;;;;;5045432;28;20040;-74
2023/01/20 10:33:44;;;;;;;37.67;20.80;;;2.70;99.90;;;;;;5051706;28;20028;-74
2023/01/20 10:36:22;;;;;;;35.80;19.65;;;2.80;99.90;;;;;;5039210;28;20049;-74
2023/01/20 10:38:58;;;;;;;33.50;19.25;;;2.80;99.90;;;;;;5049890;28;20032;-74
2023/01/20 10:41:45;;;;;;;30.05;17.60;;;2.80;99.90;;;;;;5037757;28;20026;-74
2023/01/20 10:44:12;;;;;;;31.23;17.63;;;2.90;99.90;;;;;;5041825;28;20415;-74
2023/01/20 10:47:06;;;;;;;34.97;17.60;;;2.90;99.90;;;;;;5050767;28;20502;-74
2023/01/20 10:49:56;;;;;;;30.60;16.92;;;3.00;99.90;;;;;;5037052;28;20061;-74
2023/01/20 10:52:30;;;;;;;26.80;15.88;;;3.10;99.90;;;;;;5040009;28;20330;-74
2023/01/20 10:55:17;;;;;;;27.58;15.52;;;3.10;99.90;;;;;;5051081;28;20352;-74
2023/01/20 10:57:46;;;;;;;26.55;14.48;;;3.20;99.90;;;;;;5051553;28;20029;-74
2023/01/20 11:00:25;;;;;;;25.65;15.48;;;3.30;99.90;;;;;;5049626;28;20384;-74
2023/01/20 11:02:52;;;;;;;26.80;14.93;;;3.30;99.90;;;;;;5036310;28;20025;-74
2023/01/20 11:05:23;;;;;;;26.27;15.25;;;3.40;99.90;;;;;;5051494;28;20383;-74
2023/01/20 11:07:51;;;;;;;31.30;15.50;;;3.40;99.90;;;;;;5036357;28;20032;-74
2023/01/20 11:10:18;;;;;;;28.75;16.02;;;3.40;99.90;;;;;;5049443;28;20032;-74
2023/01/20 11:12:46;;;;;;;26.27;13.80;;;3.40;99.90;;;;;;5049766;28;20028;-75
2023/01/20 11:15:18;;;;;;;24.55;12.48;;;3.40;99.90;;;;;;5049517;28;20056;-75
2023/01/20 11:17:43;;;;;;;26.00;11.98;;;3.40;99.90;;;;;;5050732;28;20024;-75
2023/01/20 11:20:18;;;;;;;21.02;10.98;;;3.40;99.90;;;;;;5050604;28;20409;-75
2023/01/20 11:22:49;;;;;;;21.67;11.30;;;3.40;99.90;;;;;;5032455;28;20017;-75
2023/01/20 11:25:26;;;;;;;21.17;11.10;;;3.40;99.90;;;;;;5050608;28;20033;-75
2023/01/20 11:27:52;;;;;;;19.58;8.25;;;3.40;99.90;;;;;;5047491;28;20621;-74
2023/01/20 11:30:28;;;;;;;24.42;8.43;;;3.40;99.90;;;;;;5048876;28;20024;-75
2023/01/20 11:33:08;;;;;;;13.77;8.02;;;3.40;99.90;;;;;;5050048;28;20029;-75
2023/01/20 11:35:34;;;;;;;17.77;8.05;;;3.40;99.90;;;;;;5042121;28;20037;-75
2023/01/20 11:38:20;;;;;;;14.15;4.63;;;3.50;99.90;;;;;;5048494;28;20349;-75
2023/01/20 11:40:56;;;;;;;13.43;4.38;;;3.50;99.90;;;;;;5048619;28;20017;-75
2023/01/20 11:43:36;;;;;;;14.20;2.83;;;3.50;99.90;;;;;;5048026;28;20404;-75
2023/01/20 11:46:19;;;;;;;10.60;2.58;;;3.50;99.90;;;;;;5051907;28;20021;-75
2023/01/20 11:48:45;;;;;;;16.02;2.63;;;3.50;99.90;;;;;;5031714;28;20353;-74
2023/01/20 11:51:26;;;;;;;11.50;2.50;;;3.60;99.90;;;;;;5044609;28;20017;-74
2023/01/20 11:54:07;;;;;;;7.90;1.90;;;3.60;99.90;;;;;;5040267;28;20400;-74
2023/01/20 11:56:42;;;;;;;8.75;1.63;;;3.70;99.90;;;;;;5042877;28;20025;-75
2023/01/20 11:59:26;;;;;;;9.77;2.05;;;3.70;99.90;;;;;;5031105;28;20033;-75
2023/01/20 12:02:00;;;;;;;6.20;1.80;;;3.70;99.90;;;;;;5042745;28;20080;-75
2023/01/20 12:04:26;;;;;;;3.75;1.33;;;3.60;99.90;;;;;;5030960;28;20032;-75
2023/01/20 12:07:31;;;;;;;7.80;1.20;;;3.50;99.90;;;;;;5029353;28;20427;-75
2023/01/20 12:10:04;;;;;;;2.75;1.00;;;3.30;99.90;;;;;;5010447;28;20037;-75
2023/01/20 12:12:47;;;;;;;2.97;1.10;;;3.20;99.90;;;;;;5032205;28;20026;-75
2023/01/20 12:15:41;;;;;;;4.70;1.20;;;3.10;99.90;;;;;;5030056;28;20033;-75
2023/01/20 12:18:14;;;;;;;5.68;1.38;;;3.10;99.90;;;;;;5032290;28;20040;-75
2023/01/20 12:20:56;;;;;;;2.90;1.10;;;3.00;99.90;;;;;;5031214;28;20030;-75
2023/01/20 12:23:44;;;;;;;4.97;1.25;;;3.00;99.90;;;;;;5029064;28;20021;-75
2023/01/20 12:26:14;;;;;;;4.38;1.48;;;3.00;99.90;;;;;;5029702;28;20032;-74
2023/01/20 12:28:44;;;;;;;8.38;1.40;;;3.00;99.90;;;;;;5030909;28;20060;-74
2023/01/20 12:31:12;;;;;;;5.93;1.15;;;3.00;99.90;;;;;;5033220;28;20057;-75
2023/01/20 12:33:43;;;;;;;3.85;1.20;;;3.00;99.90;;;;;;5030628;28;20021;-75
2023/01/20 12:36:46;;;;;;;3.70;1.38;;;3.00;99.90;;;;;;5030991;28;20080;-75
2023/01/20 12:39:51;;;;;;;4.15;1.50;;;3.10;99.90;;;;;;5032703;28;20037;-75
2023/01/20 12:42:36;;;;;;;4.43;1.90;;;3.10;99.90;;;;;;5032235;28;20075;-75
2023/01/20 12:45:18;;;;;;;8.25;2.20;;;3.10;99.90;;;;;;5032596;28;20109;-75
2023/01/20 12:48:22;;;;;;;6.05;2.20;;;3.10;99.90;;;;;;5038947;28;20025;-75
2023/01/20 12:51:06;;;;;;;4.35;2.03;;;3.10;99.90;;;;;;4964567;28;20038;-74
2023/01/20 12:53:50;;;;;;;3.47;1.70;;;3.10;99.90;;;;;;4969340;28;20506;-74
2023/01/20 12:56:30;;;;;;;4.60;1.90;;;3.10;99.90;;;;;;4968739;28;20186;-75
2023/01/20 12:59:20;;;;;;;5.50;2.08;;;3.10;99.90;;;;;;4972254;28;20607;-75
2023/01/20 13:02:23;;;;;;;6.43;2.30;;;3.20;99.90;;;;;;4977078;28;20609;-74
2023/01/20 13:05:15;;;;;;;6.03;1.98;;;3.20;99.90;;;;;;4978870;28;20251;-74
2023/01/20 13:08:21;;;;;;;5.35;2.15;;;3.30;99.90;;;;;;4981742;28;20387;-74